Time;durP1;ratioP1;P1;durP2;ratioP2;P2;SDS_P1;SDS_P2;PMS_P1;PMS_P2;Temp;Humidity;BMP_temperature;BMP_pressure;BME280_temperature;BME280_humidity;BME280_pressure;Samples;Min_cycle;Max_cycle;Signal;HPM_P1;HPM_P2
2023/11/18 00:04:43;;;;;;;2.30;1.73;;;;;;;3.94;100.00;99120.19;15271884;19;20019;-49
2023/11/18 00:10:10;;;;;;;4.00;1.40;;;;;;;3.98;100.00;99124.38;15270901;19;20018;-52
2023/11/18 00:15:35;;;;;;;1.77;1.50;;;;;;;3.96;100.00;99120.09;15268167;19;20019;-53
2023/11/18 00:21:04;;;;;;;2.33;1.70;;;;;;;3.85;100.00;99118.13;15273832;19;20089;-52
2023/11/18 00:26:29;;;;;;;2.88;1.63;;;;;;;3.75;100.00;99114.38;15019175;19;5002060;-52
2023/11/18 00:31:54;;;;;;;2.40;1.90;;;;;;;3.60;100.00;99122.41;15264980;19;20093;-51
2023/11/18 00:37:21;;;;;;;2.10;1.52;;;;;;;3.51;100.00;99128.31;15271824;19;20038;-52
2023/11/18 00:42:46;;;;;;;4.70;1.77;;;;;;;3.38;100.00;99130.94;15272130;19;20018;-51
2023/11/18 00:48:11;;;;;;;1.88;1.60;;;;;;;3.29;100.00;99124.38;15272564;19;20030;-48
2023/11/18 00:53:39;;;;;;;1.80;1.67;;;;;;;3.23;100.00;99132.78;15271730;19;20474;-52
2023/11/18 00:59:03;;;;;;;2.50;1.58;;;;;;;3.16;100.00;99142.09;15274019;19;20074;-49
2023/11/18 01:04:35;;;;;;;1.58;1.48;;;;;;;3.02;100.00;99137.63;15261446;19;20018;-52
2023/11/18 01:10:03;;;;;;;1.60;1.50;;;;;;;2.91;100.00;99138.28;15270313;19;20041;-51
2023/11/18 01:15:28;;;;;;;2.10;1.58;;;;;;;2.85;100.00;99152.00;15270274;19;20017;-51
2023/11/18 01:20:53;;;;;;;3.08;1.90;;;;;;;2.81;100.00;99158.44;15271420;19;20015;-48
2023/11/18 01:26:23;;;;;;;3.38;1.65;;;;;;;2.72;100.00;99149.19;15266136;19;20527;-48
2023/11/18 01:31:48;;;;;;;2.28;1.70;;;;;;;2.66;100.00;99158.41;15262734;19;20486;-50
2023/11/18 01:37:14;;;;;;;2.33;1.70;;;;;;;2.66;100.00;99166.41;15261598;19;20033;-51
2023/11/18 01:42:46;;;;;;;2.92;1.67;;;;;;;2.58;100.00;99163.34;15005389;19;5001381;-51
2023/11/18 01:48:13;;;;;;;3.95;1.98;;;;;;;2.47;100.00;99167.50;15285268;19;20018;-51
2023/11/18 01:53:40;;;;;;;4.45;1.83;;;;;;;2.31;100.00;99182.66;15286432;19;20017;-51
2023/11/18 01:59:10;;;;;;;3.22;1.83;;;;;;;2.15;100.00;99178.25;15284847;19;20018;-50
2023/11/18 02:04:41;;;;;;;3.75;2.05;;;;;;;2.05;100.00;99189.50;15280194;19;20018;-49
2023/11/18 02:10:08;;;;;;;3.03;2.20;;;;;;;1.98;100.00;99188.97;15291081;19;20027;-52
2023/11/18 02:15:38;;;;;;;2.60;2.10;;;;;;;1.95;100.00;99191.81;15281207;19;20430;-50
2023/11/18 02:21:04;;;;;;;3.53;2.50;;;;;;;1.89;100.00;99194.81;15282788;19;20035;-48
2023/11/18 02:26:34;;;;;;;2.97;2.05;;;;;;;1.89;100.00;99213.44;15278421;19;20018;-46
2023/11/18 02:32:12;;;;;;;2.60;2.35;;;;;;;1.79;100.00;99219.28;15274848;19;20031;-50
2023/11/18 02:37:37;;;;;;;3.70;2.13;;;;;;;1.81;100.00;99220.03;15276786;19;20377;-46
2023/11/18 02:43:06;;;;;;;2.13;1.92;;;;;;;1.79;100.00;99229.91;15272705;19;20260;-46
2023/11/18 02:48:32;;;;;;;3.50;2.00;;;;;;;1.77;100.00;99234.44;15269608;19;20599;-46
2023/11/18 02:53:57;;;;;;;3.20;2.13;;;;;;;1.70;100.00;99235.72;15272847;19;20527;-48
2023/11/18 02:59:24;;;;;;;3.15;2.30;;;;;;;1.59;100.00;99238.13;15264132;19;20681;-48
2023/11/18 03:04:56;;;;;;;3.17;2.13;;;;;;;1.45;100.00;99244.16;15262583;19;20033;-46
2023/11/18 03:10:23;;;;;;;4.20;2.63;;;;;;;1.36;100.00;99249.03;15267887;19;20018;-49
2023/11/18 03:15:50;;;;;;;2.60;2.38;;;;;;;1.30;100.00;99243.19;15267603;19;21070;-47
2023/11/18 03:21:15;;;;;;;3.85;2.42;;;;;;;1.19;100.00;99249.94;15269189;19;20459;-47
2023/11/18 03:26:40;;;;;;;4.63;2.70;;;;;;;1.19;100.00;99271.16;15266002;19;20027;-47
2023/11/18 03:32:08;;;;;;;4.82;3.05;;;;;;;1.30;100.00;99280.38;15264499;19;20002;-48
2023/11/18 03:37:34;;;;;;;4.45;2.83;;;;;;;1.42;100.00;99289.47;15263187;19;20034;-46
2023/11/18 03:42:59;;;;;;;4.15;2.95;;;;;;;1.52;100.00;99296.03;15268685;19;20041;-46
2023/11/18 03:48:26;;;;;;;3.63;2.70;;;;;;;1.61;100.00;99292.00;15266847;19;20550;-46
2023/11/18 03:53:51;;;;;;;5.93;2.70;;;;;;;1.68;100.00;99293.38;15265664;19;20476;-47
2023/11/18 03:59:23;;;;;;;3.63;2.58;;;;;;;1.73;100.00;99299.28;15275579;19;20050;-51
2023/11/18 04:04:59;;;;;;;4.28;2.50;;;;;;;1.77;100.00;99297.31;15276871;19;20077;-48
2023/11/18 04:10:24;;;;;;;2.78;2.50;;;;;;;1.81;100.00;99285.59;15269942;19;20042;-48
2023/11/18 04:15:48;;;;;;;3.00;2.50;;;;;;;1.84;100.00;99290.75;15272377;19;20884;-50
2023/11/18 04:21:16;;;;;;;4.25;2.80;;;;;;;1.89;100.00;99299.31;15279313;19;20018;-48
2023/11/18 04:26:41;;;;;;;3.80;3.00;;;;;;;1.95;100.00;99303.44;15270932;19;20035;-49
2023/11/18 04:32:08;;;;;;;5.35;3.03;;;;;;;2.00;100.00;99301.38;15273788;19;20031;-50
2023/11/18 04:37:35;;;;;;;3.60;3.00;;;;;;;2.03;100.00;99295.91;15261254;19;20015;-51
2023/11/18 04:43:02;;;;;;;5.63;2.75;;;;;;;2.09;100.00;99287.56;15276017;19;20019;-51
2023/11/18 04:48:27;;;;;;;4.65;2.78;;;;;;;2.08;100.00;99293.84;15273532;19;20493;-51
2023/11/18 04:53:57;;;;;;;3.80;2.70;;;;;;;2.09;100.00;99298.22;15273092;19;20085;-52
2023/11/18 04:59:22;;;;;;;3.80;3.05;;;;;;;2.12;100.00;99295.38;15274633;19;20078;-49
2023/11/18 05:04:47;;;;;;;5.68;2.85;;;;;;;2.15;100.00;99295.22;15271150;19;20019;-48
2023/11/18 05:10:15;;;;;;;3.97;3.10;;;;;;;2.18;100.00;99304.81;15266648;19;20020;-49
2023/11/18 05:15:40;;;;;;;3.55;3.20;;;;;;;2.18;100.00;99303.94;15270259;19;20006;-50
2023/11/18 05:21:04;;;;;;;5.22;3.03;;;;;;;2.19;100.00;99301.22;15270298;19;20030;-48
2023/11/18 05:26:34;;;;;;;4.82;2.90;;;;;;;2.19;100.00;99297.69;15265956;19;20018;-51
2023/11/18 05:32:00;;;;;;;4.50;3.38;;;;;;;2.19;100.00;99301.22;15269582;19;20022;-50
2023/11/18 05:37:25;;;;;;;5.28;3.20;;;;;;;2.21;100.00;99294.03;15267363;19;20022;-51
2023/11/18 05:42:53;;;;;;;4.55;3.65;;;;;;;2.26;100.00;99296.41;15268711;19;20014;-51
2023/11/18 05:48:18;;;;;;;4.90;3.38;;;;;;;2.26;100.00;99281.31;15268720;19;20031;-48
2023/11/18 05:53:45;;;;;;;5.15;3.70;;;;;;;2.23;100.00;99285.94;15266615;19;20098;-50
2023/11/18 05:59:13;;;;;;;4.47;3.70;;;;;;;2.18;100.00;99277.34;15269176;19;20015;-50
2023/11/18 06:04:38;;;;;;;5.72;4.22;;;;;;;2.17;100.00;99276.50;15265175;19;20023;-50
2023/11/18 06:10:05;;;;;;;6.82;3.53;;;;;;;2.14;100.00;99277.56;15268833;19;20030;-53
2023/11/18 06:15:35;;;;;;;6.40;4.18;;;;;;;2.09;100.00;99284.06;15260743;19;20018;-48
2023/11/18 06:21:00;;;;;;;5.70;4.35;;;;;;;2.04;100.00;99291.44;15268268;19;20024;-51
2023/11/18 06:26:26;;;;;;;4.72;4.15;;;;;;;1.99;100.00;99268.66;15262928;19;20029;-47
2023/11/18 06:31:54;;;;;;;6.15;4.05;;;;;;;1.94;100.00;99269.84;15273809;19;20097;-49
2023/11/18 06:37:19;;;;;;;5.45;4.53;;;;;;;1.90;100.00;99273.59;15271293;19;20028;-51
2023/11/18 06:42:46;;;;;;;5.22;4.00;;;;;;;1.84;100.00;99286.28;15274906;19;20027;-50
2023/11/18 06:48:14;;;;;;;5.22;4.00;;;;;;;1.81;100.00;99301.53;15267424;19;20027;-51
2023/11/18 06:53:39;;;;;;;5.95;4.03;;;;;;;1.81;100.00;99304.19;15268585;19;20463;-49
2023/11/18 06:59:04;;;;;;;4.30;3.20;;;;;;;1.85;100.00;99305.75;15269817;19;20382;-50
2023/11/18 07:04:38;;;;;;;5.78;3.13;;;;;;;1.89;100.00;99322.38;15266816;19;20024;-49
2023/11/18 07:10:04;;;;;;;5.05;3.40;;;;;;;1.93;100.00;99331.91;15270109;19;20028;-49
2023/11/18 07:15:28;;;;;;;3.83;2.67;;;;;;;1.99;100.00;99347.50;15261613;19;20045;-49
2023/11/18 07:20:56;;;;;;;4.22;2.90;;;;;;;2.04;100.00;99337.50;15262289;19;20360;-48
2023/11/18 07:26:20;;;;;;;4.10;3.03;;;;;;;2.10;100.00;99353.09;15258753;19;20616;-49
2023/11/18 07:31:45;;;;;;;7.22;3.50;;;;;;;2.12;100.00;99361.84;15265541;19;20010;-51
2023/11/18 07:37:13;;;;;;;4.70;3.35;;;;;;;2.17;100.00;99363.41;15265178;19;20018;-53
2023/11/18 07:42:38;;;;;;;4.07;3.15;;;;;;;2.21;100.00;99372.91;15266883;19;20015;-51
2023/11/18 07:48:06;;;;;;;4.10;3.28;;;;;;;2.27;100.00;99380.56;15267662;19;20022;-52
2023/11/18 07:53:33;;;;;;;4.15;2.83;;;;;;;2.32;100.00;99389.13;15260829;19;20014;-52
2023/11/18 07:58:58;;;;;;;6.13;3.40;;;;;;;2.38;100.00;99383.47;15266217;19;20018;-52
2023/11/18 08:04:29;;;;;;;5.40;3.83;;;;;;;2.43;100.00;99389.38;15263378;19;20029;-50
2023/11/18 08:09:57;;;;;;;5.80;3.90;;;;;;;2.50;100.00;99383.75;15260960;19;20018;-48
2023/11/18 08:15:22;;;;;;;4.97;4.05;;;;;;;2.58;100.00;99371.72;15265106;19;20406;-47
2023/11/18 08:20:47;;;;;;;3.30;3.00;;;;;;;2.66;100.00;99371.25;15266233;19;20018;-52
2023/11/18 08:26:14;;;;;;;6.55;3.10;;;;;;;2.74;100.00;99370.84;15253408;19;20035;-51
2023/11/18 08:31:41;;;;;;;4.80;2.70;;;;;;;2.86;100.00;99363.97;15263637;19;20018;-52
2023/11/18 08:37:05;;;;;;;6.38;2.80;;;;;;;3.03;100.00;99355.00;15258761;19;20010;-51
2023/11/18 08:42:34;;;;;;;3.22;2.55;;;;;;;3.18;100.00;99358.53;15264981;19;20025;-52
2023/11/18 08:47:58;;;;;;;3.80;2.65;;;;;;;3.29;100.00;99366.75;15260638;19;20645;-52
2023/11/18 08:53:26;;;;;;;3.75;2.42;;;;;;;3.42;100.00;99377.50;15257844;19;20092;-49
2023/11/18 08:58:54;;;;;;;5.38;2.70;;;;;;;3.50;100.00;99377.06;15255795;19;20023;-47
2023/11/18 09:04:25;;;;;;;5.78;3.28;;;;;;;3.58;100.00;99376.59;15255375;19;20018;-48
2023/11/18 09:09:52;;;;;;;5.32;3.28;;;;;;;3.66;100.00;99372.53;15259260;19;20035;-51
2023/11/18 09:15:22;;;;;;;3.83;3.08;;;;;;;3.75;100.00;99368.44;15261349;19;20018;-50
2023/11/18 09:20:48;;;;;;;3.20;2.80;;;;;;;3.85;100.00;99368.72;15260370;19;20014;-51
2023/11/18 09:26:14;;;;;;;3.15;2.70;;;;;;;3.99;100.00;99376.72;15255445;19;20476;-51
2023/11/18 09:31:42;;;;;;;3.03;2.28;;;;;;;4.10;100.00;99380.50;15255693;19;20010;-50
2023/11/18 09:37:09;;;;;;;3.72;2.30;;;;;;;4.25;100.00;99392.00;15253138;19;20783;-49
2023/11/18 09:42:34;;;;;;;2.70;2.05;;;;;;;4.40;100.00;99383.06;15256459;19;20085;-48
2023/11/18 09:48:02;;;;;;;3.03;2.05;;;;;;;4.50;100.00;99380.66;15256979;19;21113;-48
2023/11/18 09:53:36;;;;;;;3.00;1.85;;;;;;;4.61;100.00;99370.13;15255289;19;20522;-50
2023/11/18 09:59:15;;;;;;;4.18;2.17;;;;;;;4.77;100.00;99366.44;15259207;19;20021;-49
2023/11/18 10:04:57;;;;;;;4.65;2.15;;;;;;;4.91;100.00;99355.72;15252751;19;20011;-54
2023/11/18 10:10:24;;;;;;;2.60;2.10;;;;;;;5.07;100.00;99336.00;15273226;19;20973;-51
2023/11/18 10:15:52;;;;;;;2.65;1.70;;;;;;;5.27;100.00;99333.78;15270002;19;20082;-50
2023/11/18 10:21:39;;;;;;;2.50;2.00;;;;;;;5.32;100.00;99307.63;15272957;19;20029;-50
2023/11/18 10:27:08;;;;;;;4.72;1.80;;;;;;;5.37;100.00;99326.84;15270149;19;20082;-50
2023/11/18 10:32:35;;;;;;;3.35;1.50;;;;;;;5.40;100.00;99310.59;15268728;19;20271;-50
2023/11/18 10:38:04;;;;;;;2.08;1.38;;;;;;;5.47;100.00;99306.53;14506687;19;10000568;-50
2023/11/18 10:43:30;;;;;;;3.88;1.48;;;;;;;5.48;100.00;99313.59;15270801;19;20015;-49
2023/11/18 10:48:56;;;;;;;1.67;1.40;;;;;;;5.41;100.00;99309.66;15269889;19;20039;-52
2023/11/18 10:54:26;;;;;;;2.35;1.58;;;;;;;5.48;100.00;99304.72;15265060;19;20020;-48
2023/11/18 11:00:13;;;;;;;2.60;1.70;;;;;;;5.56;100.00;99291.66;15271174;19;20018;-51
2023/11/18 11:05:44;;;;;;;1.83;1.65;;;;;;;5.66;100.00;99289.22;15259898;19;20014;-52
2023/11/18 11:11:16;;;;;;;2.10;1.27;;;;;;;5.70;100.00;99274.69;15270246;19;20078;-49
2023/11/18 11:16:50;;;;;;;1.70;1.00;;;;;;;5.71;100.00;99292.41;15254266;19;20558;-49
2023/11/18 11:22:21;;;;;;;3.47;1.10;;;;;;;5.76;100.00;99274.22;15272005;19;20248;-49
2023/11/18 11:28:01;;;;;;;1.65;0.88;;;;;;;5.82;100.00;99270.25;15264378;19;21061;-49
2023/11/18 11:33:36;;;;;;;1.02;0.90;;;;;;;5.90;100.00;99261.69;15265569;19;20011;-47
2023/11/18 11:39:03;;;;;;;1.30;0.88;;;;;;;6.05;100.00;99251.72;15260392;19;20006;-50
2023/11/18 11:44:31;;;;;;;1.70;0.80;;;;;;;6.24;100.00;99240.53;15258661;19;20517;-51
2023/11/18 11:50:10;;;;;;;1.42;0.80;;;;;;;6.37;100.00;99219.91;15266700;19;20032;-50
2023/11/18 11:55:41;;;;;;;1.02;0.80;;;;;;;6.47;100.00;99210.22;15264156;19;20043;-50
2023/11/18 12:01:09;;;;;;;1.00;0.70;;;;;;;6.57;100.00;99193.47;15264655;19;20025;-49
2023/11/18 12:06:43;;;;;;;0.90;0.70;;;;;;;6.71;100.00;99171.84;15254990;19;20026;-48
2023/11/18 12:12:20;;;;;;;1.58;0.57;;;;;;;6.77;100.00;99141.91;15258734;19;20097;-52
2023/11/18 12:18:21;;;;;;;0.75;0.60;;;;;;;6.91;100.00;99116.72;15210244;19;20025;-52
2023/11/18 12:24:22;;;;;;;0.40;0.40;;;;;;;7.09;100.00;99127.81;15266838;19;20014;-53
2023/11/18 12:29:50;;;;;;;1.03;0.40;;;;;;;7.19;100.00;99097.59;15264664;19;20022;-52
2023/11/18 12:35:18;;;;;;;1.25;0.60;;;;;;;7.30;100.00;99099.41;15265018;19;20022;-53
2023/11/18 12:41:04;;;;;;;1.13;0.40;;;;;;;7.36;100.00;99064.91;15272540;19;20468;-52
2023/11/18 12:46:53;;;;;;;0.30;0.30;;;;;;;7.40;100.00;99057.50;15265105;19;20086;-49
2023/11/18 12:52:21;;;;;;;0.50;0.50;;;;;;;7.49;100.00;99055.88;15274239;19;20472;-50
2023/11/18 12:57:51;;;;;;;0.95;0.50;;;;;;;7.52;100.00;99056.50;15271278;19;20025;-50
2023/11/18 13:03:17;;;;;;;1.48;0.50;;;;;;;7.58;100.00;99049.78;15271766;19;20015;-52
2023/11/18 13:08:45;;;;;;;1.73;0.50;;;;;;;7.61;100.00;99060.22;15272600;19;20018;-49
2023/11/18 13:14:12;;;;;;;0.40;0.40;;;;;;;7.58;100.00;99049.78;15265481;19;20021;-52
2023/11/18 13:19:37;;;;;;;0.98;0.75;;;;;;;7.46;100.00;99048.94;15263895;19;20027;-49
2023/11/18 13:25:05;;;;;;;1.23;0.80;;;;;;;7.40;100.00;99052.13;15266819;19;20102;-53
2023/11/18 13:30:30;;;;;;;1.42;0.70;;;;;;;7.37;100.00;99047.84;15263489;19;20035;-52
2023/11/18 13:35:58;;;;;;;0.98;0.70;;;;;;;7.36;100.00;99045.31;15264098;19;20010;-51
2023/11/18 13:41:36;;;;;;;1.63;0.65;;;;;;;7.32;100.00;99054.56;15265473;19;20078;-53
2023/11/18 13:47:01;;;;;;;3.38;0.80;;;;;;;7.26;100.00;99050.56;15259290;19;20078;-52
2023/11/18 13:52:26;;;;;;;1.40;0.75;;;;;;;7.18;100.00;99044.97;15273695;19;20011;-52
2023/11/18 13:57:54;;;;;;;1.35;1.00;;;;;;;7.11;100.00;99038.41;15272191;19;20599;-52
2023/11/18 14:03:26;;;;;;;1.10;1.00;;;;;;;7.07;100.00;99029.75;15272669;19;20018;-51
2023/11/18 14:08:51;;;;;;;0.93;0.93;;;;;;;6.99;100.00;99034.88;15290549;19;20023;-49
2023/11/18 14:14:18;;;;;;;0.85;0.80;;;;;;;6.86;100.00;99027.00;15277436;19;20015;-51
2023/11/18 14:19:43;;;;;;;0.80;0.80;;;;;;;6.76;100.00;99019.66;15264131;19;20025;-48
2023/11/18 14:25:07;;;;;;;0.90;0.82;;;;;;;6.68;100.00;99010.56;15267041;19;20011;-51
2023/11/18 14:30:35;;;;;;;1.08;0.88;;;;;;;6.60;100.00;99005.81;15268403;19;20022;-51
2023/11/18 14:36:00;;;;;;;1.13;0.82;;;;;;;6.50;100.00;98992.28;15263542;19;20025;-50
2023/11/18 14:41:26;;;;;;;3.05;2.63;;;;;;;6.37;100.00;98989.75;15262194;19;20018;-51
2023/11/18 14:46:54;;;;;;;1.83;0.80;;;;;;;6.23;100.00;98987.28;15259955;19;20018;-49
2023/11/18 14:52:19;;;;;;;0.95;0.90;;;;;;;6.08;100.00;98978.63;15273214;19;20032;-50
2023/11/18 14:57:45;;;;;;;1.30;1.20;;;;;;;5.98;100.00;98978.47;15282263;19;20019;-50
2023/11/18 15:03:20;;;;;;;1.33;1.10;;;;;;;5.85;100.00;98981.25;15283695;19;20026;-49
2023/11/18 15:08:45;;;;;;;1.20;1.10;;;;;;;5.74;100.00;98962.50;15282048;19;20746;-53
2023/11/18 15:14:11;;;;;;;2.45;1.15;;;;;;;5.63;100.00;98964.16;15281755;19;20427;-52
2023/11/18 15:19:39;;;;;;;2.35;1.30;;;;;;;5.53;100.00;98947.97;15281217;19;20020;-50
2023/11/18 15:25:03;;;;;;;1.50;1.40;;;;;;;5.46;100.00;98924.47;15266581;19;20058;-50
2023/11/18 15:30:36;;;;;;;2.13;1.40;;;;;;;5.40;100.00;98921.31;15278030;19;20683;-48
2023/11/18 15:36:05;;;;;;;1.33;1.02;;;;;;;5.36;100.00;98921.66;15278825;19;20016;-52
2023/11/18 15:41:29;;;;;;;2.95;1.40;;;;;;;5.32;100.00;98923.69;15281702;19;20011;-49
2023/11/18 15:46:54;;;;;;;1.50;1.40;;;;;;;5.27;100.00;98908.97;15277629;19;20490;-50
2023/11/18 15:52:21;;;;;;;1.70;1.60;;;;;;;5.22;100.00;98907.53;15275077;19;20017;-52
2023/11/18 15:57:52;;;;;;;2.10;1.77;;;;;;;5.17;100.00;98904.34;15273583;19;20025;-54
2023/11/18 16:03:17;;;;;;;2.00;1.83;;;;;;;5.14;100.00;98893.03;15279776;19;20023;-82
2023/11/18 16:08:47;;;;;;;3.08;1.80;;;;;;;5.10;100.00;98913.78;15296225;19;20019;-82
2023/11/18 16:14:11;;;;;;;2.40;1.92;;;;;;;5.05;100.00;98911.47;15288413;19;20508;-82
2023/11/18 16:19:36;;;;;;;2.28;2.08;;;;;;;5.04;100.00;98909.75;15295990;19;20037;-82
2023/11/18 16:25:04;;;;;;;2.72;2.30;;;;;;;5.03;100.00;98908.06;15294568;19;20017;-82
2023/11/18 16:30:30;;;;;;;3.45;2.20;;;;;;;4.98;100.00;98898.69;15290488;19;20039;-82
2023/11/18 16:35:56;;;;;;;4.40;2.53;;;;;;;4.93;100.00;98897.19;15288567;19;20014;-82
2023/11/18 16:41:24;;;;;;;2.70;2.47;;;;;;;4.92;100.00;98898.16;15290725;19;20381;-82
2023/11/18 16:47:02;;;;;;;3.07;2.83;;;;;;;4.88;100.00;98893.16;15289793;19;20014;-82
2023/11/18 16:52:27;;;;;;;3.28;2.83;;;;;;;4.84;100.00;98884.53;15292435;19;20358;-82
2023/11/18 16:57:54;;;;;;;3.13;2.80;;;;;;;4.84;100.00;98870.31;15290154;19;20765;-82
2023/11/18 17:03:20;;;;;;;3.35;3.05;;;;;;;4.81;100.00;98859.88;15289668;19;20014;-82
2023/11/18 17:08:44;;;;;;;4.00;2.85;;;;;;;4.78;100.00;98856.47;15286437;19;20015;-82
2023/11/18 17:14:12;;;;;;;4.30;3.60;;;;;;;4.77;100.00;98851.22;15292336;19;20021;-82
2023/11/18 17:19:37;;;;;;;3.40;3.10;;;;;;;4.75;100.00;98861.19;15292860;19;20015;-82
2023/11/18 17:25:02;;;;;;;4.53;3.00;;;;;;;4.74;100.00;98867.50;15292050;19;20021;-82
2023/11/18 17:30:34;;;;;;;3.20;2.90;;;;;;;4.72;100.00;98878.25;15294597;19;20010;-80
2023/11/18 17:35:59;;;;;;;3.83;3.53;;;;;;;4.68;100.00;98898.16;15288953;19;20014;-81
2023/11/18 17:41:23;;;;;;;4.10;3.80;;;;;;;4.59;100.00;98886.31;15296734;19;20010;-82
2023/11/18 17:46:51;;;;;;;4.18;3.72;;;;;;;4.57;100.00;98879.41;15291989;19;20096;-83
2023/11/18 17:52:16;;;;;;;4.88;4.45;;;;;;;4.52;100.00;98868.19;15303536;19;20016;-80
2023/11/18 17:57:42;;;;;;;4.78;4.38;;;;;;;4.51;100.00;98848.69;15291945;19;20078;-82
2023/11/18 18:03:10;;;;;;;5.40;4.90;;;;;;;4.49;100.00;98839.94;15292725;19;20015;-81
2023/11/18 18:08:37;;;;;;;5.55;4.65;;;;;;;4.43;100.00;98838.56;15296300;19;20029;-78
2023/11/18 18:14:10;;;;;;;5.13;4.63;;;;;;;4.44;100.00;98826.94;15341986;19;20005;-83
2023/11/18 18:19:39;;;;;;;5.65;5.15;;;;;;;4.52;100.00;98823.72;15279792;19;20019;-79
2023/11/18 18:25:04;;;;;;;6.30;5.70;;;;;;;4.45;100.00;98823.31;15277662;19;20023;-79
2023/11/18 18:30:29;;;;;;;6.30;5.70;;;;;;;4.40;100.00;98819.28;15298587;19;20015;-78
2023/11/18 18:35:58;;;;;;;6.38;5.72;;;;;;;4.35;100.00;98798.22;15290420;19;20019;-79
2023/11/18 18:41:22;;;;;;;6.78;5.93;;;;;;;4.32;100.00;98793.16;15273054;19;20490;-81
2023/11/18 18:46:46;;;;;;;7.85;6.72;;;;;;;4.28;100.00;98781.84;15293002;19;20014;-80
2023/11/18 18:52:14;;;;;;;9.30;6.90;;;;;;;4.26;100.00;98773.13;15297969;19;20018;-82
2023/11/18 18:57:32;;;;;;;7.25;6.53;;;;;;;4.26;100.00;98769.56;15291218;19;20507;-81
2023/11/18 19:02:56;;;;;;;7.72;6.93;;;;;;;4.24;100.00;98780.38;15292613;19;20019;-80
2023/11/18 19:08:25;;;;;;;8.35;7.55;;;;;;;4.26;100.00;98757.09;15292566;19;20900;-82
2023/11/18 19:13:50;;;;;;;7.45;6.75;;;;;;;4.27;100.00;98748.16;15290017;19;20466;-46
2023/11/18 19:19:18;;;;;;;7.55;6.55;;;;;;;4.29;100.00;98746.19;15273493;19;20622;-46
2023/11/18 19:24:47;;;;;;;7.10;6.43;;;;;;;4.28;100.00;98741.84;15277716;19;20025;-46
2023/11/18 19:30:13;;;;;;;7.35;6.65;;;;;;;4.31;100.00;98728.25;15273571;19;20378;-47
2023/11/18 19:35:37;;;;;;;7.18;6.47;;;;;;;4.32;100.00;98721.13;15275523;19;20014;-46
2023/11/18 19:41:05;;;;;;;7.70;6.43;;;;;;;4.37;100.00;98723.44;15271673;19;20011;-46
2023/11/18 19:46:30;;;;;;;6.53;5.93;;;;;;;4.39;100.00;98692.19;15273237;19;20387;-47
2023/11/18 19:51:55;;;;;;;7.43;5.95;;;;;;;4.38;100.00;98691.31;15277099;19;20087;-46
2023/11/18 19:57:22;;;;;;;6.03;5.43;;;;;;;4.37;100.00;98697.63;15272965;19;20086;-48
2023/11/18 20:02:51;;;;;;;6.28;4.95;;;;;;;4.38;100.00;98698.47;15277736;19;20014;-47
2023/11/18 20:08:17;;;;;;;4.72;4.30;;;;;;;4.38;100.00;98691.31;15275179;19;20030;-46
2023/11/18 20:13:44;;;;;;;4.82;4.30;;;;;;;4.40;100.00;98694.72;15270652;19;20535;-46
2023/11/18 20:19:17;;;;;;;5.72;4.57;;;;;;;4.42;100.00;98699.94;15275749;19;20082;-46
2023/11/18 20:24:42;;;;;;;5.57;4.45;;;;;;;4.44;100.00;98704.22;15277352;19;20020;-47
2023/11/18 20:30:10;;;;;;;5.10;4.43;;;;;;;4.44;100.00;98708.69;15277714;19;20022;-47
2023/11/18 20:35:35;;;;;;;5.28;4.78;;;;;;;4.47;100.00;98703.13;15275067;19;20057;-46
2023/11/18 20:41:00;;;;;;;5.15;4.15;;;;;;;4.48;100.00;98726.16;15277014;19;20070;-47
2023/11/18 20:46:28;;;;;;;4.70;4.30;;;;;;;4.48;100.00;98691.47;15268961;19;20022;-46
2023/11/18 20:51:53;;;;;;;4.15;3.75;;;;;;;4.46;100.00;98686.28;15274151;19;20017;-47
2023/11/18 20:57:17;;;;;;;5.28;3.88;;;;;;;4.44;100.00;98660.66;15275295;19;20014;-48
2023/11/18 21:02:46;;;;;;;4.38;3.22;;;;;;;4.42;100.00;98663.44;15273933;19;20014;-46
2023/11/18 21:08:12;;;;;;;4.40;3.28;;;;;;;4.42;100.00;98667.91;15274177;19;20014;-47
2023/11/18 21:13:38;;;;;;;2.22;2.03;;;;;;;4.36;100.00;98657.72;15274731;19;20487;-47
2023/11/18 21:19:13;;;;;;;2.30;2.10;;;;;;;4.32;100.00;98657.13;15265097;19;20032;-49
2023/11/18 21:24:37;;;;;;;4.00;2.15;;;;;;;4.29;100.00;98636.84;15272664;19;20015;-45
2023/11/18 21:30:02;;;;;;;2.95;2.10;;;;;;;4.32;100.00;98625.94;15270325;19;20366;-45
2023/11/18 21:35:30;;;;;;;1.60;1.50;;;;;;;4.32;100.00;98612.59;15269088;19;20010;-46
2023/11/18 21:40:55;;;;;;;1.60;1.42;;;;;;;4.37;100.00;98590.06;15274212;19;20011;-48
2023/11/18 21:46:20;;;;;;;1.38;1.27;;;;;;;4.36;100.00;98591.03;15269975;19;20608;-46
2023/11/18 21:51:48;;;;;;;1.88;1.30;;;;;;;4.37;100.00;98590.06;15268281;19;20007;-48
2023/11/18 21:57:15;;;;;;;1.52;1.27;;;;;;;4.38;100.00;98571.28;15272566;19;20010;-46
2023/11/18 22:02:40;;;;;;;0.90;0.90;;;;;;;4.39;100.00;98556.13;15282430;19;20085;-45
2023/11/18 22:08:08;;;;;;;1.38;1.10;;;;;;;4.38;100.00;98555.28;15287918;19;20014;-49
2023/11/18 22:13:33;;;;;;;1.15;0.90;;;;;;;4.36;100.00;98527.03;15284118;19;20389;-45
2023/11/18 22:19:06;;;;;;;1.83;1.00;;;;;;;4.33;100.00;98530.78;15281023;19;20702;-46
2023/11/18 22:24:34;;;;;;;0.90;0.85;;;;;;;4.31;100.00;98525.56;15279725;19;20413;-44
2023/11/18 22:30:00;;;;;;;0.80;0.80;;;;;;;4.32;100.00;98508.59;15285802;19;20014;-46
2023/11/18 22:35:24;;;;;;;0.80;0.80;;;;;;;4.31;100.00;98482.88;15282301;19;20419;-44
2023/11/18 22:40:52;;;;;;;0.93;0.77;;;;;;;4.29;100.00;98460.81;15286247;19;20014;-45
2023/11/18 22:46:16;;;;;;;0.80;0.80;;;;;;;4.25;100.00;98447.84;15281563;19;20092;-45
2023/11/18 22:51:41;;;;;;;0.80;0.80;;;;;;;4.26;100.00;98454.88;15283568;19;20101;-43
2023/11/18 22:57:09;;;;;;;0.98;0.70;;;;;;;4.34;100.00;98419.59;15278679;19;20082;-44
2023/11/18 23:02:34;;;;;;;0.60;0.60;;;;;;;4.42;100.00;98398.50;15284024;19;20412;-45
2023/11/18 23:07:59;;;;;;;0.80;0.80;;;;;;;4.47;100.00;98401.66;15285201;19;20358;-45
2023/11/18 23:13:27;;;;;;;0.70;0.70;;;;;;;4.48;100.00;98398.00;15283826;19;20077;-45
2023/11/18 23:18:59;;;;;;;0.60;0.60;;;;;;;4.50;100.00;98382.75;15279466;19;20086;-44
2023/11/18 23:24:24;;;;;;;0.85;0.70;;;;;;;4.58;100.00;98368.78;15280540;19;20016;-44
2023/11/18 23:29:52;;;;;;;0.73;0.73;;;;;;;4.59;100.00;98370.44;15278372;19;20452;-79
2023/11/18 23:35:18;;;;;;;0.60;0.60;;;;;;;4.55;100.00;98345.84;15301892;19;20010;-79
2023/11/18 23:40:43;;;;;;;0.60;0.60;;;;;;;4.60;100.00;98341.00;15303047;19;20372;-79
2023/11/18 23:46:12;;;;;;;1.15;0.80;;;;;;;4.67;100.00;98335.13;15302520;19;20018;-79
2023/11/18 23:51:38;;;;;;;1.08;0.70;;;;;;;4.71;100.00;98331.25;15297884;19;20018;-79
2023/11/18 23:57:04;;;;;;;0.70;0.70;;;;;;;4.75;100.00;98322.03;15292854;19;20517;-78
